Time;durP1;ratioP1;P1;durP2;ratioP2;P2;SDS_P1;SDS_P2;PMS_P1;PMS_P2;Temp;Humidity;BMP_temperature;BMP_pressure;BME280_temperature;BME280_humidity;BME280_pressure;Samples;Min_cycle;Max_cycle;Signal;HPM_P1;HPM_P2
2021/08/18 00:01:24;;;;;;;5.66;4.91;;;;;;;14.51;89.75;99526.72;2002883;80;20190;-73
2021/08/18 00:04:27;;;;;;;5.47;4.41;;;;;;;14.48;89.91;99529.41;2001081;81;20178;-74
2021/08/18 00:07:29;;;;;;;6.14;4.93;;;;;;;14.54;89.96;99534.50;2002211;81;20170;-73
2021/08/18 00:10:33;;;;;;;9.30;5.43;;;;;;;14.54;89.94;99531.03;2002130;81;20225;-73
2021/08/18 00:13:36;;;;;;;6.70;4.95;;;;;;;14.54;89.87;99529.28;2001702;80;20824;-73
2021/08/18 00:16:38;;;;;;;6.51;4.78;;;;;;;14.56;90.04;99516.22;2003929;78;29650;-73
2021/08/18 00:19:41;;;;;;;7.09;4.45;;;;;;;14.56;89.94;99527.53;2007194;80;20197;-73
2021/08/18 00:22:44;;;;;;;8.66;5.14;;;;;;;14.57;89.92;99528.38;2006329;80;20201;-73
2021/08/18 00:25:47;;;;;;;4.89;4.43;;;;;;;14.56;89.63;99521.44;2006902;80;20246;-74
2021/08/18 00:28:49;;;;;;;7.01;5.22;;;;;;;14.54;89.67;99529.28;2006748;80;20357;-73
2021/08/18 00:31:52;;;;;;;5.93;4.35;;;;;;;14.53;89.72;99530.16;2001688;78;31453;-72
2021/08/18 00:34:55;;;;;;;7.84;4.86;;;;;;;14.52;89.78;99529.31;2000072;80;20182;-73
2021/08/18 00:37:57;;;;;;;5.45;4.16;;;;;;;14.56;89.83;99529.28;1999593;81;20291;-72
2021/08/18 00:41:00;;;;;;;6.66;4.31;;;;;;;14.55;89.89;99522.34;2000098;81;20455;-73
2021/08/18 00:44:04;;;;;;;4.64;4.04;;;;;;;14.54;89.88;99521.44;1999659;81;20584;-73
2021/08/18 00:47:08;;;;;;;5.76;4.13;;;;;;;14.55;89.96;99522.34;2002073;78;20859;-73
2021/08/18 00:50:12;;;;;;;5.53;4.04;;;;;;;14.56;90.18;99521.44;2005123;80;20262;-73
2021/08/18 00:53:15;;;;;;;6.45;4.34;;;;;;;14.54;90.21;99518.81;2004564;80;20180;-72
2021/08/18 00:56:17;;;;;;;7.46;3.92;;;;;;;14.56;90.38;99518.84;2004466;80;20172;-73
2021/08/18 00:59:21;;;;;;;6.00;3.84;;;;;;;14.58;90.53;99520.53;2004637;80;20213;-73
2021/08/18 01:02:24;;;;;;;7.14;3.45;;;;;;;14.58;90.36;99519.66;2000526;78;21420;-73
2021/08/18 01:05:29;;;;;;;5.47;3.69;;;;;;;14.57;90.50;99517.94;2004511;80;20193;-73
2021/08/18 01:08:32;;;;;;;4.18;3.47;;;;;;;14.58;90.52;99511.81;2002310;81;20951;-73
2021/08/18 01:11:39;;;;;;;4.61;3.13;;;;;;;14.59;90.52;99510.94;2001831;81;20584;-73
2021/08/18 01:14:42;;;;;;;3.75;3.45;;;;;;;14.61;90.52;99517.84;2001863;80;20217;-73
2021/08/18 01:17:48;;;;;;;3.41;3.11;;;;;;;14.63;90.77;99507.38;2004632;78;20865;-73
2021/08/18 01:20:51;;;;;;;5.39;2.89;;;;;;;14.66;90.76;99507.28;2006583;80;20191;-72
2021/08/18 01:23:54;;;;;;;3.54;2.86;;;;;;;14.68;90.63;99510.75;2007473;80;20191;-71
2021/08/18 01:26:58;;;;;;;3.19;2.72;;;;;;;14.69;90.53;99507.22;2006388;80;20225;-72
2021/08/18 01:30:01;;;;;;;4.44;2.40;;;;;;;14.70;90.62;99506.34;2006511;80;20230;-73
2021/08/18 01:33:06;;;;;;;2.88;2.67;;;;;;;14.72;90.51;99507.16;2003863;78;25995;-72
2021/08/18 01:36:08;;;;;;;3.39;2.71;;;;;;;14.70;90.52;99501.13;2001529;81;20317;-72
2021/08/18 01:39:11;;;;;;;2.85;2.54;;;;;;;14.72;90.68;99507.16;2001706;81;20231;-73
2021/08/18 01:42:14;;;;;;;2.49;2.29;;;;;;;14.72;90.71;99494.09;2002058;81;20231;-72
2021/08/18 01:45:22;;;;;;;2.86;2.64;;;;;;;14.70;90.61;99501.13;2001407;80;20211;-71
2021/08/18 01:48:29;;;;;;;2.69;2.22;;;;;;;14.71;90.65;99502.84;2007818;80;20194;-72
2021/08/18 01:51:32;;;;;;;2.70;2.09;;;;;;;14.72;90.67;99504.56;2007680;80;20670;-72
2021/08/18 01:54:34;;;;;;;3.58;2.33;;;;;;;14.74;90.61;99497.56;2008552;80;20193;-73
2021/08/18 01:57:40;;;;;;;2.30;1.90;;;;;;;14.73;90.77;99501.94;2007593;80;20207;-72
2021/08/18 02:00:43;;;;;;;3.14;1.89;;;;;;;14.73;90.80;99504.56;2006846;78;21021;-73
2021/08/18 02:03:47;;;;;;;1.80;1.64;;;;;;;14.74;90.80;99502.81;2009761;80;20320;-73
2021/08/18 02:06:49;;;;;;;2.49;1.56;;;;;;;14.75;90.71;99510.63;2009108;80;20198;-72
2021/08/18 02:09:52;;;;;;;1.76;1.30;;;;;;;14.76;90.79;99506.25;2009570;80;20204;-72
2021/08/18 02:12:55;;;;;;;3.34;1.88;;;;;;;14.76;90.76;99498.41;2009634;80;20173;-72
2021/08/18 02:15:57;;;;;;;5.81;1.67;;;;;;;14.79;90.74;99507.03;2006330;78;23802;-72
2021/08/18 02:19:00;;;;;;;2.86;1.63;;;;;;;14.77;90.82;99505.34;2004836;81;20742;-72
2021/08/18 02:22:03;;;;;;;2.17;1.33;;;;;;;14.74;90.90;99506.28;2003587;81;20339;-73
2021/08/18 02:25:06;;;;;;;1.48;1.36;;;;;;;14.75;91.00;99504.53;2004002;80;20377;-72
2021/08/18 02:28:10;;;;;;;2.51;1.26;;;;;;;14.76;91.10;99501.88;2002918;81;20217;-73
2021/08/18 02:31:12;;;;;;;1.65;1.20;;;;;;;14.77;90.97;99500.13;2002621;78;21586;-73
2021/08/18 02:34:15;;;;;;;2.50;1.38;;;;;;;14.72;91.05;99500.22;2006785;80;20201;-72
2021/08/18 02:37:18;;;;;;;1.60;1.11;;;;;;;14.74;91.14;99502.81;2006537;80;20173;-72
2021/08/18 02:40:21;;;;;;;1.61;1.31;;;;;;;14.75;91.09;99505.38;2006876;80;20209;-72
2021/08/18 02:43:23;;;;;;;1.06;1.05;;;;;;;14.77;91.00;99503.59;2006383;80;20329;-72
2021/08/18 02:46:26;;;;;;;2.00;1.26;;;;;;;14.78;90.96;99499.22;2002900;80;20210;-73
2021/08/18 02:49:28;;;;;;;2.08;1.25;;;;;;;14.75;91.02;99494.94;2001391;81;20345;-72
2021/08/18 02:52:31;;;;;;;1.51;1.01;;;;;;;14.77;91.06;99498.38;2001808;80;20174;-72
2021/08/18 02:55:34;;;;;;;2.51;1.38;;;;;;;14.78;91.17;99497.47;2001765;81;20316;-72
2021/08/18 02:58:37;;;;;;;1.67;1.00;;;;;;;14.80;91.17;99494.81;2001594;81;20198;-73
2021/08/18 03:01:40;;;;;;;1.51;1.00;;;;;;;14.83;91.13;99494.75;2003447;79;20571;-72
2021/08/18 03:04:43;;;;;;;2.38;1.21;;;;;;;14.86;91.13;99497.31;2005214;80;20764;-73
2021/08/18 03:07:45;;;;;;;1.84;1.10;;;;;;;14.87;91.27;99495.56;2005845;80;20192;-73
2021/08/18 03:10:48;;;;;;;1.16;1.00;;;;;;;14.87;91.10;99495.56;2005358;80;20740;-72
2021/08/18 03:13:50;;;;;;;2.17;1.11;;;;;;;14.88;91.16;99492.03;2001186;80;20588;-73
2021/08/18 03:16:53;;;;;;;1.36;1.05;;;;;;;14.90;91.10;99501.59;2001815;78;21201;-72
2021/08/18 03:19:56;;;;;;;1.17;1.13;;;;;;;14.89;91.07;99496.38;2000534;81;20335;-72
2021/08/18 03:22:58;;;;;;;1.11;1.01;;;;;;;14.89;91.25;99497.25;2000623;80;20192;-74
2021/08/18 03:26:01;;;;;;;1.61;1.00;;;;;;;14.89;91.11;99499.84;2000145;81;20207;-72
2021/08/18 03:29:03;;;;;;;1.13;1.00;;;;;;;14.89;91.06;99499.84;1999694;80;20231;-73
2021/08/18 03:32:06;;;;;;;1.11;1.01;;;;;;;14.86;91.32;99502.53;2003085;79;21067;-72
2021/08/18 03:35:09;;;;;;;1.00;1.00;;;;;;;14.86;91.40;99504.28;2005134;80;20297;-72
2021/08/18 03:38:12;;;;;;;2.70;1.30;;;;;;;14.89;91.45;99501.59;2004922;80;20226;-72
2021/08/18 03:41:16;;;;;;;1.08;1.05;;;;;;;14.86;91.37;99496.44;2005295;80;20173;-72
2021/08/18 03:44:18;;;;;;;2.21;1.04;;;;;;;14.86;91.54;99504.28;2004685;80;21307;-71
2021/08/18 03:47:21;;;;;;;1.84;1.20;;;;;;;14.88;91.58;99505.13;1999861;78;21177;-72
2021/08/18 03:50:23;;;;;;;1.75;1.10;;;;;;;14.89;91.65;99499.84;1999973;81;20182;-72
2021/08/18 03:53:26;;;;;;;1.52;1.19;;;;;;;14.90;91.62;99506.84;1999788;80;20267;-71
2021/08/18 03:56:28;;;;;;;1.34;1.24;;;;;;;14.91;91.51;99500.72;1999939;80;20166;-72
2021/08/18 03:59:31;;;;;;;2.51;1.27;;;;;;;14.89;91.54;99507.69;2000407;81;20218;-72
2021/08/18 04:02:35;;;;;;;1.66;1.13;;;;;;;14.91;91.57;99510.31;1998735;78;20590;-71
2021/08/18 04:05:37;;;;;;;1.16;1.11;;;;;;;14.90;91.66;99514.69;1999686;80;20227;-71
2021/08/18 04:08:40;;;;;;;2.16;1.33;;;;;;;14.89;91.57;99510.31;2000395;81;20206;-72
2021/08/18 04:11:42;;;;;;;4.56;1.34;;;;;;;14.91;91.51;99511.16;1999721;81;20178;-71
2021/08/18 04:14:45;;;;;;;1.55;1.45;;;;;;;14.94;91.60;99516.34;2001092;81;20174;-72
2021/08/18 04:17:48;;;;;;;2.20;1.36;;;;;;;14.95;91.48;99515.44;2000834;78;22774;-72
2021/08/18 04:20:50;;;;;;;1.71;1.56;;;;;;;14.92;91.61;99517.25;2002001;81;20243;-72
2021/08/18 04:23:53;;;;;;;1.96;1.73;;;;;;;14.93;91.67;99525.06;2001997;81;20186;-72
2021/08/18 04:26:55;;;;;;;1.56;1.46;;;;;;;14.95;91.63;99519.81;2001782;81;20173;-72
2021/08/18 04:29:58;;;;;;;2.08;1.77;;;;;;;14.93;91.72;99521.59;2002101;81;20517;-73
2021/08/18 04:33:01;;;;;;;2.63;1.70;;;;;;;14.94;91.65;99516.34;1995865;78;20194;-72
2021/08/18 04:36:04;;;;;;;2.29;1.38;;;;;;;14.92;91.54;99518.13;1996934;81;20174;-72
2021/08/18 04:39:06;;;;;;;1.74;1.52;;;;;;;14.91;91.63;99513.78;1996779;81;20312;-72
2021/08/18 04:42:09;;;;;;;2.14;1.75;;;;;;;14.95;91.63;99517.19;1997426;81;20204;-73
2021/08/18 04:45:13;;;;;;;1.77;1.67;;;;;;;14.93;91.69;99516.38;1996732;80;20588;-72
2021/08/18 04:48:15;;;;;;;1.98;1.85;;;;;;;14.90;91.61;99522.53;1997605;78;20693;-72
2021/08/18 04:51:18;;;;;;;3.10;1.50;;;;;;;14.92;91.81;99519.88;1999291;80;20199;-72
2021/08/18 04:54:21;;;;;;;2.70;1.71;;;;;;;14.95;91.76;99523.28;2000671;80;20254;-72
2021/08/18 04:57:23;;;;;;;2.22;1.64;;;;;;;14.96;91.85;99521.53;1999222;81;20234;-73
2021/08/18 05:00:26;;;;;;;2.14;1.67;;;;;;;14.96;91.79;99525.00;1999137;78;42331;-72
2021/08/18 05:03:29;;;;;;;1.89;1.79;;;;;;;14.97;91.88;99526.72;2005670;80;20278;-73
2021/08/18 05:06:32;;;;;;;2.09;1.99;;;;;;;14.98;91.87;99519.75;2006806;80;21260;-72
2021/08/18 05:09:34;;;;;;;1.66;1.56;;;;;;;14.95;91.71;99523.28;2007083;80;20173;-72
2021/08/18 05:12:38;;;;;;;2.04;1.94;;;;;;;14.94;91.81;99523.31;2006241;80;20368;-72
2021/08/18 05:15:41;;;;;;;2.49;2.08;;;;;;;14.94;91.80;99524.19;2006317;78;22517;-74
2021/08/18 05:18:43;;;;;;;5.38;2.03;;;;;;;14.96;91.84;99519.78;2004752;80;20188;-73
2021/08/18 05:21:46;;;;;;;2.56;1.63;;;;;;;14.99;91.93;99521.47;2004738;80;20216;-73
2021/08/18 05:24:49;;;;;;;2.20;2.03;;;;;;;15.04;91.78;99517.00;2008084;80;20213;-73
2021/08/18 05:27:51;;;;;;;2.00;1.75;;;;;;;15.06;91.71;99523.06;2007926;80;20566;-73
2021/08/18 05:30:57;;;;;;;2.14;2.00;;;;;;;15.07;91.64;99520.41;2005399;78;33695;-73
2021/08/18 05:33:59;;;;;;;2.49;1.81;;;;;;;15.09;91.59;99523.00;2002938;81;20202;-75
2021/08/18 05:37:02;;;;;;;2.00;1.89;;;;;;;15.12;91.47;99528.19;2002931;81;20282;-75
2021/08/18 05:40:06;;;;;;;2.50;1.96;;;;;;;15.15;91.51;99527.25;2002674;81;20218;-73
2021/08/18 05:43:12;;;;;;;1.89;1.79;;;;;;;15.19;91.36;99524.53;1998758;80;20217;-74
2021/08/18 05:46:15;;;;;;;1.75;1.65;;;;;;;15.19;91.28;99526.28;2004719;79;22251;-72
2021/08/18 05:49:21;;;;;;;3.13;1.91;;;;;;;15.23;91.23;99530.53;2008368;80;20265;-73
2021/08/18 05:52:23;;;;;;;1.86;1.71;;;;;;;15.22;90.88;99527.06;2008588;80;20181;-74
2021/08/18 05:55:26;;;;;;;1.89;1.51;;;;;;;15.20;90.86;99522.78;2008750;80;20322;-74
2021/08/18 05:58:29;;;;;;;1.67;1.58;;;;;;;15.20;91.08;99526.25;2008180;80;20238;-73
2021/08/18 06:01:31;;;;;;;2.44;1.54;;;;;;;15.24;91.18;99522.66;2004565;78;20182;-73
2021/08/18 06:04:34;;;;;;;2.22;1.96;;;;;;;15.27;91.15;99527.84;2002066;81;20306;-74
2021/08/18 06:07:36;;;;;;;2.25;1.59;;;;;;;15.32;91.41;99526.00;2002744;81;20199;-74
2021/08/18 06:10:39;;;;;;;1.91;1.79;;;;;;;15.37;91.30;99529.38;2003106;81;20551;-75
2021/08/18 06:13:41;;;;;;;1.63;1.52;;;;;;;15.41;91.11;99524.91;2002384;80;20216;-74
2021/08/18 06:16:44;;;;;;;1.74;1.64;;;;;;;15.42;91.12;99524.88;2001901;78;22665;-74
2021/08/18 06:19:47;;;;;;;1.64;1.40;;;;;;;15.45;91.13;99531.84;2002378;81;20241;-73
2021/08/18 06:22:50;;;;;;;2.95;1.73;;;;;;;15.45;91.07;99529.22;2002924;80;20197;-73
2021/08/18 06:25:53;;;;;;;1.77;1.61;;;;;;;15.48;90.92;99529.16;2002495;81;20227;-74
2021/08/18 06:28:56;;;;;;;2.16;1.69;;;;;;;15.55;90.96;99529.84;2002695;81;20730;-74
2021/08/18 06:31:59;;;;;;;2.56;1.46;;;;;;;15.60;90.98;99533.25;2001789;78;21232;-74
2021/08/18 06:35:02;;;;;;;2.28;1.38;;;;;;;15.61;90.83;99529.75;2002517;80;20591;-74
2021/08/18 06:38:11;;;;;;;2.86;1.50;;;;;;;15.59;90.45;99535.00;2002487;81;20193;-74
2021/08/18 06:41:18;;;;;;;2.22;1.25;;;;;;;15.58;90.15;99541.13;2002811;81;20388;-74
2021/08/18 06:44:21;;;;;;;2.39;1.04;;;;;;;15.58;90.11;99533.25;2002653;80;21142;-74
2021/08/18 06:47:23;;;;;;;1.65;1.38;;;;;;;15.58;90.27;99535.88;2005795;78;22163;-74
2021/08/18 06:50:26;;;;;;;1.25;1.15;;;;;;;15.56;90.32;99535.06;2007291;80;20177;-74
2021/08/18 06:53:31;;;;;;;1.30;1.20;;;;;;;15.62;90.43;99527.13;2007610;80;20209;-74
2021/08/18 06:56:33;;;;;;;1.09;1.00;;;;;;;15.68;90.58;99526.97;2003916;80;20632;-74
2021/08/18 06:59:36;;;;;;;1.50;1.10;;;;;;;15.76;90.68;99531.16;2005877;80;20177;-73
2021/08/18 07:02:46;;;;;;;0.95;0.93;;;;;;;15.87;90.60;99534.41;2004486;78;48225;-73
2021/08/18 07:05:49;;;;;;;1.50;1.08;;;;;;;15.89;90.06;99530.84;2004895;80;20176;-73
2021/08/18 07:08:52;;;;;;;0.79;0.79;;;;;;;15.92;89.83;99527.28;2005804;80;20193;-74
2021/08/18 07:11:54;;;;;;;1.29;0.80;;;;;;;16.06;89.88;99529.56;2005662;80;20181;-72
2021/08/18 07:14:57;;;;;;;0.74;0.65;;;;;;;16.16;89.54;99534.56;2005798;80;20666;-72
2021/08/18 07:18:02;;;;;;;1.25;0.70;;;;;;;16.24;89.28;99532.59;1999803;79;20478;-72
2021/08/18 07:21:05;;;;;;;0.81;0.70;;;;;;;16.30;88.80;99535.06;2000177;80;20251;-72
2021/08/18 07:24:07;;;;;;;0.51;0.51;;;;;;;16.36;88.50;99531.44;1999891;81;20174;-73
2021/08/18 07:27:10;;;;;;;0.43;0.40;;;;;;;16.39;88.44;99536.59;1999738;81;20197;-74
2021/08/18 07:30:13;;;;;;;2.51;0.50;;;;;;;16.44;88.05;99533.84;1996183;80;20177;-72
2021/08/18 07:33:16;;;;;;;1.46;0.40;;;;;;;16.46;87.43;99539.91;1999791;78;20791;-73
2021/08/18 07:36:18;;;;;;;0.50;0.40;;;;;;;16.43;87.22;99540.84;1995865;81;20190;-73
2021/08/18 07:39:21;;;;;;;0.52;0.30;;;;;;;16.36;87.24;99541.91;1999657;81;20186;-73
2021/08/18 07:42:24;;;;;;;0.32;0.30;;;;;;;16.40;87.28;99533.06;2000780;81;20173;-73
2021/08/18 07:45:27;;;;;;;0.82;0.30;;;;;;;16.44;87.50;99537.31;1999408;78;21822;-73
2021/08/18 07:48:31;;;;;;;0.44;0.40;;;;;;;16.48;88.08;99538.09;2004731;80;20177;-73
2021/08/18 07:51:33;;;;;;;0.29;0.29;;;;;;;16.49;87.88;99535.44;2005475;80;21042;-72
2021/08/18 07:54:36;;;;;;;0.25;0.20;;;;;;;16.45;87.53;99536.44;2008886;80;20209;-73
2021/08/18 07:57:39;;;;;;;0.40;0.30;;;;;;;16.44;87.45;99536.47;2005234;80;20220;-72
2021/08/18 08:00:41;;;;;;;0.69;0.30;;;;;;;16.50;87.65;99538.91;2002956;78;21215;-73
2021/08/18 08:03:44;;;;;;;1.06;0.30;;;;;;;16.56;87.99;99539.66;1999788;81;20182;-72
2021/08/18 08:06:47;;;;;;;0.54;0.20;;;;;;;16.64;87.93;99534.19;1999906;81;20247;-72
2021/08/18 08:09:49;;;;;;;0.20;0.20;;;;;;;16.69;87.54;99532.31;2002497;80;20204;-73
2021/08/18 08:12:52;;;;;;;0.63;0.20;;;;;;;16.75;87.48;99531.31;1999984;81;20725;-73
2021/08/18 08:15:56;;;;;;;0.35;0.20;;;;;;;16.76;86.94;99535.66;2000912;78;21737;-73
2021/08/18 08:18:58;;;;;;;0.70;0.20;;;;;;;16.80;87.13;99526.78;2005384;80;20184;-75
2021/08/18 08:22:01;;;;;;;0.24;0.20;;;;;;;16.83;86.76;99534.56;2004777;80;20811;-74
2021/08/18 08:25:05;;;;;;;0.11;0.11;;;;;;;16.84;85.64;99533.66;2004857;80;21165;-76
2021/08/18 08:28:07;;;;;;;0.20;0.13;;;;;;;16.83;85.90;99530.19;2005290;80;20647;-76
2021/08/18 08:31:11;;;;;;;0.69;0.10;;;;;;;16.87;85.94;99533.59;2004814;78;21881;-76
2021/08/18 08:34:16;;;;;;;0.10;0.10;;;;;;;16.91;85.96;99537.88;2005489;80;20214;-76
2021/08/18 08:37:20;;;;;;;0.69;0.10;;;;;;;16.84;85.27;99542.41;2005712;80;20748;-77
2021/08/18 08:40:22;;;;;;;0.69;0.10;;;;;;;16.86;85.49;99540.59;2008079;80;20192;-76
2021/08/18 08:43:26;;;;;;;0.19;0.19;;;;;;;16.91;85.40;99537.88;2004590;80;20185;-76
2021/08/18 08:46:29;;;;;;;0.70;0.11;;;;;;;16.98;85.21;99542.03;2003327;78;20230;-76
2021/08/18 08:49:33;;;;;;;0.11;0.10;;;;;;;17.12;85.19;99541.66;2003565;80;20180;-76
2021/08/18 08:52:36;;;;;;;0.50;0.20;;;;;;;17.25;84.59;99542.16;2004783;80;20246;-76
2021/08/18 08:55:40;;;;;;;0.66;0.20;;;;;;;17.51;84.45;99542.22;2005204;80;20269;-76
2021/08/18 08:58:42;;;;;;;0.13;0.09;;;;;;;17.78;83.55;99548.44;2005484;80;21131;-76
2021/08/18 09:02:06;;;;;;;0.10;0.10;;;;;;;18.01;81.91;99555.59;2004602;78;28135;-76
2021/08/18 09:05:09;;;;;;;0.30;0.20;;;;;;;18.10;80.71;99539.53;2002378;81;20199;-76
2021/08/18 09:08:15;;;;;;;0.10;0.10;;;;;;;18.03;80.30;99546.75;2002767;81;20173;-76
2021/08/18 09:11:21;;;;;;;0.34;0.20;;;;;;;18.02;80.66;99541.56;2004292;80;20185;-76
2021/08/18 09:14:28;;;;;;;0.10;0.10;;;;;;;18.06;80.17;99535.28;2003027;81;20190;-76
2021/08/18 09:17:35;;;;;;;0.10;0.10;;;;;;;18.28;80.16;99535.41;2006146;78;22690;-75
2021/08/18 09:20:40;;;;;;;0.13;0.10;;;;;;;18.46;79.56;99534.81;2009179;80;20702;-76
2021/08/18 09:23:43;;;;;;;0.54;0.26;;;;;;;18.68;79.07;99537.59;2008116;80;20225;-75
2021/08/18 09:26:55;;;;;;;0.10;0.10;;;;;;;18.76;77.48;99532.91;2008281;80;20231;-76
2021/08/18 09:29:58;;;;;;;0.30;0.30;;;;;;;18.83;76.42;99531.78;2009105;80;20242;-76
2021/08/18 09:33:09;;;;;;;0.20;0.20;;;;;;;18.83;75.60;99525.66;1996980;79;26191;-77
2021/08/18 09:36:22;;;;;;;0.15;0.15;;;;;;;18.82;75.38;99519.53;1998123;81;20270;-73
2021/08/18 09:39:26;;;;;;;0.35;0.10;;;;;;;18.78;75.42;99527.59;1997051;81;20601;-75
2021/08/18 09:42:33;;;;;;;2.15;0.10;;;;;;;18.68;75.62;99527.09;2000954;81;20186;-75
2021/08/18 09:45:39;;;;;;;0.14;0.10;;;;;;;18.62;76.63;99528.09;1999442;78;21355;-75
2021/08/18 09:48:44;;;;;;;0.85;0.16;;;;;;;18.56;76.93;99525.69;2007621;80;20169;-74
2021/08/18 09:51:58;;;;;;;0.11;0.10;;;;;;;18.61;77.21;99528.16;2008076;80;20287;-75
2021/08/18 09:55:03;;;;;;;0.04;0.00;;;;;;;18.65;76.96;99524.53;2007685;80;20206;-75
2021/08/18 09:58:18;;;;;;;0.30;0.10;;;;;;;18.71;76.38;99516.44;2008174;80;20201;-76
2021/08/18 10:01:21;;;;;;;0.30;0.01;;;;;;;18.84;76.67;99522.09;2005067;78;20861;-76
2021/08/18 10:04:25;;;;;;;0.10;0.10;;;;;;;19.01;76.31;99520.59;2002665;80;20719;-76
2021/08/18 10:07:28;;;;;;;0.05;0.04;;;;;;;19.20;75.52;99514.63;2002742;81;20243;-76
2021/08/18 10:10:30;;;;;;;0.10;0.10;;;;;;;19.36;74.69;99522.81;2001805;81;20209;-76
2021/08/18 10:13:34;;;;;;;0.10;0.00;;;;;;;19.49;74.13;99510.91;2001444;81;20185;-76
2021/08/18 10:16:37;;;;;;;0.57;0.16;;;;;;;19.43;72.99;99508.50;2002050;79;20310;-76
2021/08/18 10:19:41;;;;;;;0.14;0.00;;;;;;;19.59;73.58;99509.66;2006578;80;20286;-76
2021/08/18 10:22:43;;;;;;;0.10;0.10;;;;;;;19.70;72.84;99506.59;2006206;80;20284;-76
2021/08/18 10:25:48;;;;;;;1.35;0.00;;;;;;;19.86;72.91;99499.78;2006590;80;20304;-76
2021/08/18 10:29:11;;;;;;;0.00;0.00;;;;;;;19.90;71.19;99496.97;2006716;80;20207;-76
2021/08/18 10:32:19;;;;;;;0.10;0.00;;;;;;;19.92;70.42;99500.38;2001609;78;20610;-76
2021/08/18 10:35:36;;;;;;;0.16;0.10;;;;;;;20.00;71.05;99505.38;2002198;81;20174;-76
2021/08/18 10:38:39;;;;;;;0.00;0.00;;;;;;;19.89;70.33;99499.66;2005580;80;20290;-76
2021/08/18 10:42:06;;;;;;;0.10;0.00;;;;;;;19.51;71.11;99501.16;2002846;81;20189;-76
2021/08/18 10:45:18;;;;;;;0.00;0.00;;;;;;;19.32;72.55;99503.66;2001850;80;20225;-76
2021/08/18 10:48:55;;;;;;;0.10;0.00;;;;;;;19.38;73.82;99507.81;2006858;78;20193;-76
2021/08/18 10:51:59;;;;;;;0.05;0.05;;;;;;;19.37;73.70;99506.09;2007790;80;20261;-77
2021/08/18 10:55:17;;;;;;;0.10;0.10;;;;;;;19.41;74.07;99498.03;2007974;80;20298;-77
2021/08/18 10:58:28;;;;;;;0.75;0.00;;;;;;;19.49;73.42;99495.09;2008856;80;20177;-77
2021/08/18 11:01:43;;;;;;;0.47;0.00;;;;;;;19.58;73.78;99500.91;2003857;78;21091;-77
2021/08/18 11:04:47;;;;;;;0.08;0.08;;;;;;;19.69;72.05;99491.72;2004166;80;20877;-77
2021/08/18 11:08:06;;;;;;;0.00;0.00;;;;;;;19.72;71.43;99497.72;2003101;81;20216;-77
2021/08/18 11:11:09;;;;;;;;;;;;;;;19.71;71.16;99490.72;2002598;81;20219;-76
2021/08/18 11:14:12;;;;;;;0.09;0.09;;;;;;;19.60;71.58;99500.84;2003072;81;20527;-77
2021/08/18 11:17:17;;;;;;;0.10;0.09;;;;;;;19.21;73.10;99506.72;2005904;78;22646;-77
2021/08/18 11:20:22;;;;;;;0.00;0.00;;;;;;;19.00;74.64;99510.97;2004000;80;20671;-77
2021/08/18 11:23:28;;;;;;;0.00;0.00;;;;;;;18.80;75.48;99504.72;2008113;80;20222;-77
2021/08/18 11:26:34;;;;;;;0.00;0.00;;;;;;;18.74;77.46;99502.31;2008690;80;20177;-77
2021/08/18 11:29:38;;;;;;;0.56;0.03;;;;;;;18.89;78.90;99502.63;2008136;80;20224;-77
2021/08/18 11:32:40;;;;;;;0.00;0.00;;;;;;;18.92;78.72;99501.66;2003462;78;20265;-77
2021/08/18 11:35:43;;;;;;;0.00;0.00;;;;;;;18.96;78.86;99496.22;2003245;81;20178;-77
2021/08/18 11:38:56;;;;;;;0.44;0.10;;;;;;;19.06;78.38;99503.78;2002740;81;20215;-76
2021/08/18 11:41:58;;;;;;;0.21;0.00;;;;;;;19.18;77.63;99498.03;2002164;81;20274;-76
2021/08/18 11:45:15;;;;;;;0.46;0.00;;;;;;;19.27;76.56;99493.31;2002352;80;20213;-76
2021/08/18 11:48:21;;;;;;;0.00;0.00;;;;;;;19.69;77.72;99496.97;2007456;78;21687;-76
2021/08/18 11:51:23;;;;;;;0.06;0.00;;;;;;;20.09;77.73;99493.56;2007214;80;20208;-76
2021/08/18 11:54:26;;;;;;;0.44;0.00;;;;;;;20.26;74.60;99490.22;2007541;80;20209;-75
2021/08/18 11:57:29;;;;;;;0.00;0.00;;;;;;;20.34;72.29;99496.06;2010171;80;20839;-76
2021/08/18 12:00:34;;;;;;;0.17;0.00;;;;;;;20.53;73.49;99486.47;2006140;80;24317;-75
2021/08/18 12:03:37;;;;;;;0.00;0.00;;;;;;;20.61;71.71;99481.69;2002362;80;21043;-75
2021/08/18 12:06:40;;;;;;;0.29;0.00;;;;;;;20.78;71.61;99481.78;2003258;80;20245;-75
2021/08/18 12:09:45;;;;;;;0.00;0.00;;;;;;;21.10;71.55;99490.91;2003074;81;20346;-75
2021/08/18 12:13:07;;;;;;;0.29;0.00;;;;;;;21.69;70.76;99474.06;2002295;80;20661;-77
2021/08/18 12:16:42;;;;;;;0.38;0.00;;;;;;;22.50;68.25;99479.75;2002472;80;25792;-77
2021/08/18 12:19:47;;;;;;;1.02;0.00;;;;;;;22.29;64.48;99469.34;1995568;81;20173;-78
2021/08/18 12:22:49;;;;;;;0.86;0.10;;;;;;;22.14;64.39;99477.19;2003125;80;20230;-78
2021/08/18 12:25:53;;;;;;;0.20;0.10;;;;;;;21.97;63.80;99480.66;2002283;81;20165;-76
2021/08/18 12:28:57;;;;;;;0.10;0.10;;;;;;;21.78;64.92;99471.91;2002125;81;20200;-76
2021/08/18 12:32:07;;;;;;;0.60;0.10;;;;;;;21.69;65.45;99468.75;2003737;80;20231;-76
2021/08/18 12:35:11;;;;;;;0.19;0.05;;;;;;;21.73;65.35;99466.00;2007914;80;21025;-76
2021/08/18 12:38:19;;;;;;;0.25;0.05;;;;;;;21.81;65.72;99463.81;2007744;80;20370;-77
2021/08/18 12:41:27;;;;;;;2.14;0.00;;;;;;;22.00;66.97;99468.13;2007106;80;20643;-78
2021/08/18 12:44:33;;;;;;;0.36;0.10;;;;;;;22.06;63.85;99452.91;2009478;80;20180;-77
2021/08/18 12:47:56;;;;;;;0.69;0.10;;;;;;;22.09;61.59;99453.63;2006705;78;22886;-77
2021/08/18 12:51:03;;;;;;;0.10;0.10;;;;;;;22.20;61.56;99450.41;2008115;80;20220;-77
2021/08/18 12:54:06;;;;;;;0.10;0.10;;;;;;;22.14;62.91;99456.88;2008103;80;20197;-77
2021/08/18 12:57:09;;;;;;;0.44;0.10;;;;;;;22.05;61.18;99454.69;2008134;80;20189;-77
2021/08/18 13:00:12;;;;;;;0.39;0.10;;;;;;;22.00;61.66;99456.69;2006565;80;20191;-77
2021/08/18 13:03:15;;;;;;;0.51;0.09;;;;;;;22.05;61.61;99454.69;2001730;78;23139;-77
2021/08/18 13:06:17;;;;;;;0.15;0.06;;;;;;;22.09;61.23;99447.47;2002383;81;20169;-77
2021/08/18 13:09:20;;;;;;;0.10;0.10;;;;;;;22.05;62.42;99454.69;2001833;81;20572;-77
2021/08/18 13:12:23;;;;;;;0.10;0.10;;;;;;;21.84;61.11;99453.09;2003041;81;20854;-76
2021/08/18 13:15:25;;;;;;;0.38;0.10;;;;;;;21.70;60.83;99445.84;2003350;78;22138;-77
2021/08/18 13:18:28;;;;;;;0.22;0.20;;;;;;;21.53;61.52;99456.38;2007890;80;20304;-77
2021/08/18 13:21:30;;;;;;;0.21;0.20;;;;;;;21.39;61.83;99451.75;2007872;80;20232;-77
2021/08/18 13:24:33;;;;;;;0.10;0.10;;;;;;;21.38;63.10;99458.84;2008072;80;20284;-77
2021/08/18 13:27:37;;;;;;;0.45;0.10;;;;;;;21.44;62.63;99448.91;2008275;80;20620;-77
2021/08/18 13:30:40;;;;;;;4.18;0.20;;;;;;;21.47;62.92;99446.09;2005936;78;22374;-77
2021/08/18 13:33:42;;;;;;;0.28;0.10;;;;;;;21.51;61.75;99450.31;2003186;81;20296;-77
2021/08/18 13:36:48;;;;;;;0.10;0.10;;;;;;;21.44;61.25;99449.75;2003288;81;20238;-76
2021/08/18 13:39:50;;;;;;;0.10;0.10;;;;;;;21.37;62.02;99450.97;2002217;81;20314;-76
2021/08/18 13:42:53;;;;;;;0.26;0.10;;;;;;;21.32;62.81;99445.03;2001902;81;20210;-76
2021/08/18 13:45:56;;;;;;;0.49;0.32;;;;;;;21.16;62.60;99439.59;2002471;78;20721;-76
2021/08/18 13:49:00;;;;;;;0.65;0.10;;;;;;;21.10;64.65;99443.38;2008119;80;20289;-76
2021/08/18 13:52:03;;;;;;;0.30;0.10;;;;;;;21.20;64.96;99429.75;2007822;80;20717;-76
2021/08/18 13:55:06;;;;;;;1.60;0.10;;;;;;;21.30;63.56;99434.56;2008041;80;20563;-76
2021/08/18 13:58:09;;;;;;;0.66;0.19;;;;;;;21.41;63.88;99434.06;2007888;80;20221;-75
2021/08/18 14:01:13;;;;;;;0.52;0.10;;;;;;;21.47;63.81;99430.25;2004950;78;20412;-75
2021/08/18 14:04:15;;;;;;;0.19;0.10;;;;;;;21.66;63.27;99428.41;2002433;80;20199;-75
2021/08/18 14:07:18;;;;;;;0.16;0.10;;;;;;;21.88;61.81;99431.69;2002040;81;20197;-75
2021/08/18 14:10:24;;;;;;;0.10;0.10;;;;;;;21.89;60.31;99422.84;2002901;81;20203;-75
2021/08/18 14:13:27;;;;;;;0.10;0.10;;;;;;;21.78;59.37;99424.31;2001953;80;20948;-75
2021/08/18 14:16:30;;;;;;;0.13;0.10;;;;;;;21.69;58.92;99425.63;2002481;78;53859;-75
2021/08/18 14:19:33;;;;;;;0.25;0.10;;;;;;;21.68;60.10;99432.69;2007734;80;20197;-75
2021/08/18 14:22:35;;;;;;;0.10;0.09;;;;;;;21.60;59.05;99429.59;2007324;80;20193;-76
2021/08/18 14:25:38;;;;;;;0.35;0.10;;;;;;;21.60;58.94;99426.09;2007521;80;20590;-76
2021/08/18 14:28:41;;;;;;;0.57;0.10;;;;;;;21.57;59.00;99421.81;2007766;80;20189;-76